sensor_id;sensor_type;location;lat;lon;timestamp;P1;durP1;ratioP1;P2;durP2;ratioP2
50393;SDS011;36308;46.312;25.288;2023-02-15T00:00:05;45.45;;;20.08;;
50393;SDS011;36308;46.312;25.288;2023-02-15T00:02:35;50.22;;;26.10;;
50393;SDS011;36308;46.312;25.288;2023-02-15T00:05:00;26.13;;;15.25;;
50393;SDS011;36308;46.312;25.288;2023-02-15T00:07:26;28.67;;;15.85;;
50393;SDS011;36308;46.312;25.288;2023-02-15T00:09:52;23.83;;;12.73;;
50393;SDS011;36308;46.312;25.288;2023-02-15T00:12:17;27.25;;;15.45;;
50393;SDS011;36308;46.312;25.288;2023-02-15T00:14:43;27.33;;;15.32;;
50393;SDS011;36308;46.312;25.288;2023-02-15T00:17:09;23.10;;;12.27;;
50393;SDS011;36308;46.312;25.288;2023-02-15T00:19:34;23.50;;;13.82;;
50393;SDS011;36308;46.312;25.288;2023-02-15T00:22:00;24.52;;;14.63;;
50393;SDS011;36308;46.312;25.288;2023-02-15T00:24:25;21.50;;;12.70;;
50393;SDS011;36308;46.312;25.288;2023-02-15T00:26:51;26.08;;;14.50;;
50393;SDS011;36308;46.312;25.288;2023-02-15T00:29:17;27.30;;;14.80;;
50393;SDS011;36308;46.312;25.288;2023-02-15T00:31:43;46.70;;;23.73;;
50393;SDS011;36308;46.312;25.288;2023-02-15T00:34:16;29.15;;;15.63;;
50393;SDS011;36308;46.312;25.288;2023-02-15T00:36:49;25.17;;;14.00;;
50393;SDS011;36308;46.312;25.288;2023-02-15T00:39:15;22.92;;;13.00;;
50393;SDS011;36308;46.312;25.288;2023-02-15T00:41:42;23.20;;;12.43;;
50393;SDS011;36308;46.312;25.288;2023-02-15T00:44:07;26.60;;;13.63;;
50393;SDS011;36308;46.312;25.288;2023-02-15T00:46:33;22.40;;;13.13;;
50393;SDS011;36308;46.312;25.288;2023-02-15T00:48:59;26.67;;;14.75;;
50393;SDS011;36308;46.312;25.288;2023-02-15T00:51:25;22.27;;;13.18;;
50393;SDS011;36308;46.312;25.288;2023-02-15T00:53:51;21.83;;;13.20;;
50393;SDS011;36308;46.312;25.288;2023-02-15T00:56:16;23.95;;;13.45;;
50393;SDS011;36308;46.312;25.288;2023-02-15T00:58:42;24.30;;;12.95;;
50393;SDS011;36308;46.312;25.288;2023-02-15T01:01:09;22.15;;;12.68;;
50393;SDS011;36308;46.312;25.288;2023-02-15T01:03:36;22.60;;;13.30;;
50393;SDS011;36308;46.312;25.288;2023-02-15T01:06:02;22.70;;;13.30;;
50393;SDS011;36308;46.312;25.288;2023-02-15T01:08:29;23.67;;;12.88;;
50393;SDS011;36308;46.312;25.288;2023-02-15T01:10:54;19.60;;;11.60;;
50393;SDS011;36308;46.312;25.288;2023-02-15T01:13:20;22.38;;;12.80;;
50393;SDS011;36308;46.312;25.288;2023-02-15T01:15:46;20.08;;;11.48;;
50393;SDS011;36308;46.312;25.288;2023-02-15T01:18:17;21.65;;;12.10;;
50393;SDS011;36308;46.312;25.288;2023-02-15T01:20:43;21.88;;;12.70;;
50393;SDS011;36308;46.312;25.288;2023-02-15T01:23:08;20.75;;;12.50;;
50393;SDS011;36308;46.312;25.288;2023-02-15T01:25:35;22.52;;;12.95;;
50393;SDS011;36308;46.312;25.288;2023-02-15T01:28:01;26.45;;;13.07;;
50393;SDS011;36308;46.312;25.288;2023-02-15T01:30:27;21.25;;;12.30;;
50393;SDS011;36308;46.312;25.288;2023-02-15T01:32:53;22.42;;;12.65;;
50393;SDS011;36308;46.312;25.288;2023-02-15T01:35:18;22.33;;;12.75;;
50393;SDS011;36308;46.312;25.288;2023-02-15T01:37:44;20.63;;;12.15;;
50393;SDS011;36308;46.312;25.288;2023-02-15T01:40:14;22.50;;;12.77;;
50393;SDS011;36308;46.312;25.288;2023-02-15T01:42:42;21.95;;;11.93;;
50393;SDS011;36308;46.312;25.288;2023-02-15T01:45:18;22.33;;;12.35;;
50393;SDS011;36308;46.312;25.288;2023-02-15T01:50:32;23.73;;;13.73;;
50393;SDS011;36308;46.312;25.288;2023-02-15T01:53:03;24.67;;;13.45;;
50393;SDS011;36308;46.312;25.288;2023-02-15T01:55:32;24.92;;;13.98;;
50393;SDS011;36308;46.312;25.288;2023-02-15T01:58:01;23.88;;;12.90;;
50393;SDS011;36308;46.312;25.288;2023-02-15T02:00:27;24.00;;;13.50;;
50393;SDS011;36308;46.312;25.288;2023-02-15T02:02:54;24.08;;;13.13;;
50393;SDS011;36308;46.312;25.288;2023-02-15T02:05:22;21.80;;;12.73;;
50393;SDS011;36308;46.312;25.288;2023-02-15T02:07:48;22.85;;;13.43;;
50393;SDS011;36308;46.312;25.288;2023-02-15T02:10:18;22.88;;;13.35;;
50393;SDS011;36308;46.312;25.288;2023-02-15T02:12:48;22.77;;;12.98;;
50393;SDS011;36308;46.312;25.288;2023-02-15T02:15:16;27.40;;;14.50;;
50393;SDS011;36308;46.312;25.288;2023-02-15T02:34:11;25.55;;;13.50;;
50393;SDS011;36308;46.312;25.288;2023-02-15T02:42:35;25.00;;;13.30;;
50393;SDS011;36308;46.312;25.288;2023-02-15T02:47:38;29.67;;;17.27;;
50393;SDS011;36308;46.312;25.288;2023-02-15T02:50:13;29.92;;;15.93;;
50393;SDS011;36308;46.312;25.288;2023-02-15T02:52:42;28.02;;;15.25;;
50393;SDS011;36308;46.312;25.288;2023-02-15T02:57:39;25.08;;;14.80;;
50393;SDS011;36308;46.312;25.288;2023-02-15T03:00:13;26.35;;;14.55;;
50393;SDS011;36308;46.312;25.288;2023-02-15T03:02:41;34.28;;;16.10;;
50393;SDS011;36308;46.312;25.288;2023-02-15T03:05:11;28.38;;;15.48;;
50393;SDS011;36308;46.312;25.288;2023-02-15T03:07:41;27.67;;;15.38;;
50393;SDS011;36308;46.312;25.288;2023-02-15T03:10:10;26.38;;;14.02;;
50393;SDS011;36308;46.312;25.288;2023-02-15T03:12:36;28.33;;;15.13;;
50393;SDS011;36308;46.312;25.288;2023-02-15T03:17:40;32.00;;;16.80;;
50393;SDS011;36308;46.312;25.288;2023-02-15T03:20:18;31.27;;;17.00;;
50393;SDS011;36308;46.312;25.288;2023-02-15T03:22:54;33.00;;;16.63;;
50393;SDS011;36308;46.312;25.288;2023-02-15T03:27:54;33.13;;;17.27;;
50393;SDS011;36308;46.312;25.288;2023-02-15T03:30:24;32.78;;;17.75;;
50393;SDS011;36308;46.312;25.288;2023-02-15T03:32:50;34.83;;;17.83;;
50393;SDS011;36308;46.312;25.288;2023-02-15T03:35:19;46.58;;;24.20;;
50393;SDS011;36308;46.312;25.288;2023-02-15T03:37:53;47.75;;;26.00;;
50393;SDS011;36308;46.312;25.288;2023-02-15T03:40:34;59.28;;;30.10;;
50393;SDS011;36308;46.312;25.288;2023-02-15T03:45:55;50.47;;;26.23;;
50393;SDS011;36308;46.312;25.288;2023-02-15T03:48:39;45.65;;;26.08;;
50393;SDS011;36308;46.312;25.288;2023-02-15T03:51:09;42.67;;;24.23;;
50393;SDS011;36308;46.312;25.288;2023-02-15T03:53:57;45.95;;;26.30;;
50393;SDS011;36308;46.312;25.288;2023-02-15T03:56:25;48.15;;;27.80;;
50393;SDS011;36308;46.312;25.288;2023-02-15T03:58:51;47.75;;;28.63;;
50393;SDS011;36308;46.312;25.288;2023-02-15T04:04:23;53.28;;;31.42;;
50393;SDS011;36308;46.312;25.288;2023-02-15T04:06:53;54.65;;;30.80;;
50393;SDS011;36308;46.312;25.288;2023-02-15T04:09:18;45.80;;;25.67;;
50393;SDS011;36308;46.312;25.288;2023-02-15T04:12:03;46.72;;;25.58;;
50393;SDS011;36308;46.312;25.288;2023-02-15T04:14:28;46.65;;;25.25;;
50393;SDS011;36308;46.312;25.288;2023-02-15T04:17:12;44.45;;;25.02;;
50393;SDS011;36308;46.312;25.288;2023-02-15T04:19:38;53.03;;;29.90;;
50393;SDS011;36308;46.312;25.288;2023-02-15T04:22:22;59.80;;;32.67;;
50393;SDS011;36308;46.312;25.288;2023-02-15T04:25:06;52.50;;;28.98;;
50393;SDS011;36308;46.312;25.288;2023-02-15T04:27:44;79.45;;;39.97;;
50393;SDS011;36308;46.312;25.288;2023-02-15T04:30:12;94.65;;;49.13;;
50393;SDS011;36308;46.312;25.288;2023-02-15T04:32:40;73.07;;;41.00;;
50393;SDS011;36308;46.312;25.288;2023-02-15T04:35:06;70.05;;;40.22;;
50393;SDS011;36308;46.312;25.288;2023-02-15T04:37:32;83.70;;;47.92;;
50393;SDS011;36308;46.312;25.288;2023-02-15T04:39:58;67.28;;;36.20;;
50393;SDS011;36308;46.312;25.288;2023-02-15T04:42:27;63.60;;;34.63;;
50393;SDS011;36308;46.312;25.288;2023-02-15T04:44:53;63.75;;;37.17;;
50393;SDS011;36308;46.312;25.288;2023-02-15T04:47:19;61.70;;;34.92;;
50393;SDS011;36308;46.312;25.288;2023-02-15T04:49:44;57.45;;;31.67;;
50393;SDS011;36308;46.312;25.288;2023-02-15T04:52:10;56.95;;;31.75;;
50393;SDS011;36308;46.312;25.288;2023-02-15T04:54:36;52.95;;;30.70;;
50393;SDS011;36308;46.312;25.288;2023-02-15T04:57:03;58.70;;;33.47;;
50393;SDS011;36308;46.312;25.288;2023-02-15T04:59:29;48.65;;;28.38;;
50393;SDS011;36308;46.312;25.288;2023-02-15T05:01:54;51.30;;;28.33;;
50393;SDS011;36308;46.312;25.288;2023-02-15T05:04:20;76.63;;;39.00;;
50393;SDS011;36308;46.312;25.288;2023-02-15T05:06:45;92.15;;;43.97;;
50393;SDS011;36308;46.312;25.288;2023-02-15T05:09:11;65.82;;;35.70;;
50393;SDS011;36308;46.312;25.288;2023-02-15T05:11:37;97.60;;;49.40;;
50393;SDS011;36308;46.312;25.288;2023-02-15T05:14:03;85.70;;;44.00;;
50393;SDS011;36308;46.312;25.288;2023-02-15T05:16:28;82.95;;;44.47;;
50393;SDS011;36308;46.312;25.288;2023-02-15T05:18:54;60.95;;;33.95;;
50393;SDS011;36308;46.312;25.288;2023-02-15T05:21:19;67.43;;;35.92;;
50393;SDS011;36308;46.312;25.288;2023-02-15T05:23:45;70.15;;;37.38;;
50393;SDS011;36308;46.312;25.288;2023-02-15T05:26:11;82.00;;;38.58;;
50393;SDS011;36308;46.312;25.288;2023-02-15T05:29:01;93.53;;;50.47;;
50393;SDS011;36308;46.312;25.288;2023-02-15T05:31:26;99.07;;;53.60;;
50393;SDS011;36308;46.312;25.288;2023-02-15T05:33:52;85.57;;;47.53;;
50393;SDS011;36308;46.312;25.288;2023-02-15T05:36:17;90.18;;;48.28;;
50393;SDS011;36308;46.312;25.288;2023-02-15T05:38:43;106.32;;;53.63;;
50393;SDS011;36308;46.312;25.288;2023-02-15T05:41:09;102.68;;;52.25;;
50393;SDS011;36308;46.312;25.288;2023-02-15T05:43:35;96.13;;;48.55;;
50393;SDS011;36308;46.312;25.288;2023-02-15T05:46:02;82.40;;;45.42;;
50393;SDS011;36308;46.312;25.288;2023-02-15T05:48:28;97.25;;;53.05;;
50393;SDS011;36308;46.312;25.288;2023-02-15T05:51:02;70.63;;;38.72;;
50393;SDS011;36308;46.312;25.288;2023-02-15T05:53:32;67.70;;;37.72;;
50393;SDS011;36308;46.312;25.288;2023-02-15T05:56:00;142.55;;;74.50;;
50393;SDS011;36308;46.312;25.288;2023-02-15T05:58:28;143.75;;;81.20;;
50393;SDS011;36308;46.312;25.288;2023-02-15T06:00:56;99.85;;;55.80;;
50393;SDS011;36308;46.312;25.288;2023-02-15T06:03:22;84.07;;;47.28;;
50393;SDS011;36308;46.312;25.288;2023-02-15T06:05:48;65.05;;;38.60;;
50393;SDS011;36308;46.312;25.288;2023-02-15T06:08:14;75.78;;;43.20;;
50393;SDS011;36308;46.312;25.288;2023-02-15T06:10:40;73.68;;;41.67;;
50393;SDS011;36308;46.312;25.288;2023-02-15T06:13:06;72.20;;;42.40;;
50393;SDS011;36308;46.312;25.288;2023-02-15T06:15:31;60.22;;;36.72;;
50393;SDS011;36308;46.312;25.288;2023-02-15T06:17:57;59.33;;;35.35;;
50393;SDS011;36308;46.312;25.288;2023-02-15T06:20:23;57.25;;;34.67;;
50393;SDS011;36308;46.312;25.288;2023-02-15T06:22:48;57.38;;;33.45;;
50393;SDS011;36308;46.312;25.288;2023-02-15T06:25:14;55.53;;;29.58;;
50393;SDS011;36308;46.312;25.288;2023-02-15T06:27:42;65.45;;;36.72;;
50393;SDS011;36308;46.312;25.288;2023-02-15T06:30:08;60.75;;;34.42;;
50393;SDS011;36308;46.312;25.288;2023-02-15T06:32:35;55.85;;;33.15;;
50393;SDS011;36308;46.312;25.288;2023-02-15T06:35:01;54.97;;;32.88;;
50393;SDS011;36308;46.312;25.288;2023-02-15T06:37:26;67.68;;;35.30;;
50393;SDS011;36308;46.312;25.288;2023-02-15T06:39:52;72.38;;;41.08;;
50393;SDS011;36308;46.312;25.288;2023-02-15T06:42:17;68.35;;;38.45;;
50393;SDS011;36308;46.312;25.288;2023-02-15T06:44:44;67.45;;;36.00;;
50393;SDS011;36308;46.312;25.288;2023-02-15T06:47:09;64.45;;;36.10;;
50393;SDS011;36308;46.312;25.288;2023-02-15T06:49:36;74.35;;;39.75;;
50393;SDS011;36308;46.312;25.288;2023-02-15T06:52:01;72.97;;;40.47;;
50393;SDS011;36308;46.312;25.288;2023-02-15T06:54:28;79.00;;;42.75;;
50393;SDS011;36308;46.312;25.288;2023-02-15T06:56:53;89.20;;;47.08;;
50393;SDS011;36308;46.312;25.288;2023-02-15T06:59:19;83.70;;;44.47;;
50393;SDS011;36308;46.312;25.288;2023-02-15T07:01:44;85.22;;;48.03;;
50393;SDS011;36308;46.312;25.288;2023-02-15T07:04:10;103.05;;;52.90;;
50393;SDS011;36308;46.312;25.288;2023-02-15T07:06:36;95.75;;;52.38;;
50393;SDS011;36308;46.312;25.288;2023-02-15T07:09:02;103.47;;;55.00;;
50393;SDS011;36308;46.312;25.288;2023-02-15T07:11:28;95.85;;;50.95;;
50393;SDS011;36308;46.312;25.288;2023-02-15T07:14:12;82.45;;;44.58;;
50393;SDS011;36308;46.312;25.288;2023-02-15T07:16:37;90.03;;;46.65;;
50393;SDS011;36308;46.312;25.288;2023-02-15T07:19:03;96.82;;;48.92;;
50393;SDS011;36308;46.312;25.288;2023-02-15T07:21:29;70.75;;;42.03;;
50393;SDS011;36308;46.312;25.288;2023-02-15T07:23:58;82.78;;;46.75;;
50393;SDS011;36308;46.312;25.288;2023-02-15T07:26:24;101.70;;;54.75;;
50393;SDS011;36308;46.312;25.288;2023-02-15T07:28:50;89.57;;;51.60;;
50393;SDS011;36308;46.312;25.288;2023-02-15T07:31:15;82.80;;;48.38;;
50393;SDS011;36308;46.312;25.288;2023-02-15T07:33:41;80.85;;;46.92;;
50393;SDS011;36308;46.312;25.288;2023-02-15T07:36:06;74.03;;;43.33;;
50393;SDS011;36308;46.312;25.288;2023-02-15T07:38:35;92.88;;;50.30;;
50393;SDS011;36308;46.312;25.288;2023-02-15T07:41:06;83.85;;;49.08;;
50393;SDS011;36308;46.312;25.288;2023-02-15T07:43:37;90.75;;;52.05;;
50393;SDS011;36308;46.312;25.288;2023-02-15T07:46:06;101.00;;;56.17;;
50393;SDS011;36308;46.312;25.288;2023-02-15T07:48:34;89.90;;;50.33;;
50393;SDS011;36308;46.312;25.288;2023-02-15T07:51:01;125.20;;;68.55;;
50393;SDS011;36308;46.312;25.288;2023-02-15T07:53:28;84.40;;;49.35;;
50393;SDS011;36308;46.312;25.288;2023-02-15T07:55:58;83.53;;;46.63;;
50393;SDS011;36308;46.312;25.288;2023-02-15T07:58:27;69.00;;;38.40;;
50393;SDS011;36308;46.312;25.288;2023-02-15T08:01:12;72.80;;;42.17;;
50393;SDS011;36308;46.312;25.288;2023-02-15T08:03:40;86.15;;;49.75;;
50393;SDS011;36308;46.312;25.288;2023-02-15T08:06:25;113.35;;;63.63;;
50393;SDS011;36308;46.312;25.288;2023-02-15T08:08:52;98.78;;;57.72;;
50393;SDS011;36308;46.312;25.288;2023-02-15T08:11:25;98.00;;;57.90;;
50393;SDS011;36308;46.312;25.288;2023-02-15T08:18:58;24.80;;;12.48;;
50393;SDS011;36308;46.312;25.288;2023-02-15T08:21:30;22.20;;;13.65;;
50393;SDS011;36308;46.312;25.288;2023-02-15T08:23:56;27.75;;;14.52;;
50393;SDS011;36308;46.312;25.288;2023-02-15T08:26:23;26.15;;;13.80;;
50393;SDS011;36308;46.312;25.288;2023-02-15T08:28:50;27.88;;;15.70;;
50393;SDS011;36308;46.312;25.288;2023-02-15T08:31:16;30.85;;;15.77;;
50393;SDS011;36308;46.312;25.288;2023-02-15T08:33:43;38.85;;;18.67;;
50393;SDS011;36308;46.312;25.288;2023-02-15T08:36:11;21.83;;;11.98;;
50393;SDS011;36308;46.312;25.288;2023-02-15T08:38:39;24.15;;;11.80;;
50393;SDS011;36308;46.312;25.288;2023-02-15T08:41:12;20.25;;;11.07;;
50393;SDS011;36308;46.312;25.288;2023-02-15T08:43:58;29.42;;;14.20;;
50393;SDS011;36308;46.312;25.288;2023-02-15T08:46:25;34.15;;;15.18;;
50393;SDS011;36308;46.312;25.288;2023-02-15T08:48:52;25.58;;;13.50;;
50393;SDS011;36308;46.312;25.288;2023-02-15T08:51:18;42.70;;;18.58;;
50393;SDS011;36308;46.312;25.288;2023-02-15T08:53:47;37.33;;;16.10;;
50393;SDS011;36308;46.312;25.288;2023-02-15T08:56:14;25.02;;;12.75;;
50393;SDS011;36308;46.312;25.288;2023-02-15T08:58:40;25.10;;;12.25;;
50393;SDS011;36308;46.312;25.288;2023-02-15T09:01:09;51.30;;;21.98;;
50393;SDS011;36308;46.312;25.288;2023-02-15T09:03:36;36.55;;;16.52;;
50393;SDS011;36308;46.312;25.288;2023-02-15T09:06:03;20.67;;;11.43;;
50393;SDS011;36308;46.312;25.288;2023-02-15T09:08:29;25.08;;;14.95;;
50393;SDS011;36308;46.312;25.288;2023-02-15T09:11:04;22.08;;;12.32;;
50393;SDS011;36308;46.312;25.288;2023-02-15T09:13:31;49.60;;;19.67;;
50393;SDS011;36308;46.312;25.288;2023-02-15T09:16:03;29.17;;;16.08;;
50393;SDS011;36308;46.312;25.288;2023-02-15T09:18:32;23.85;;;12.25;;
50393;SDS011;36308;46.312;25.288;2023-02-15T09:21:07;20.08;;;10.85;;
50393;SDS011;36308;46.312;25.288;2023-02-15T09:23:41;28.40;;;14.23;;
50393;SDS011;36308;46.312;25.288;2023-02-15T09:26:08;29.00;;;14.05;;
50393;SDS011;36308;46.312;25.288;2023-02-15T09:28:36;17.10;;;9.70;;
50393;SDS011;36308;46.312;25.288;2023-02-15T09:31:05;22.27;;;11.40;;
50393;SDS011;36308;46.312;25.288;2023-02-15T09:33:35;34.58;;;13.38;;
50393;SDS011;36308;46.312;25.288;2023-02-15T09:36:02;25.65;;;12.35;;
50393;SDS011;36308;46.312;25.288;2023-02-15T09:38:29;17.52;;;9.85;;
50393;SDS011;36308;46.312;25.288;2023-02-15T09:41:08;29.63;;;14.65;;
50393;SDS011;36308;46.312;25.288;2023-02-15T09:43:54;25.50;;;14.23;;
50393;SDS011;36308;46.312;25.288;2023-02-15T09:49:20;27.77;;;15.52;;
50393;SDS011;36308;46.312;25.288;2023-02-15T09:52:01;22.55;;;11.63;;
50393;SDS011;36308;46.312;25.288;2023-02-15T09:54:35;32.60;;;15.18;;
50393;SDS011;36308;46.312;25.288;2023-02-15T10:13:36;18.92;;;9.98;;
50393;SDS011;36308;46.312;25.288;2023-02-15T10:16:19;21.33;;;11.80;;
50393;SDS011;36308;46.312;25.288;2023-02-15T10:19:08;17.75;;;10.13;;
50393;SDS011;36308;46.312;25.288;2023-02-15T10:21:56;19.23;;;11.05;;
50393;SDS011;36308;46.312;25.288;2023-02-15T10:27:24;14.57;;;9.52;;
50393;SDS011;36308;46.312;25.288;2023-02-15T10:32:31;23.20;;;13.13;;
50393;SDS011;36308;46.312;25.288;2023-02-15T10:35:14;23.67;;;13.45;;
50393;SDS011;36308;46.312;25.288;2023-02-15T10:43:45;15.55;;;9.65;;
50393;SDS011;36308;46.312;25.288;2023-02-15T10:54:15;28.20;;;15.10;;
50393;SDS011;36308;46.312;25.288;2023-02-15T11:07:41;20.85;;;11.60;;
50393;SDS011;36308;46.312;25.288;2023-02-15T11:13:16;28.48;;;15.70;;
50393;SDS011;36308;46.312;25.288;2023-02-15T11:15:53;40.72;;;23.45;;
50393;SDS011;36308;46.312;25.288;2023-02-15T11:18:28;22.38;;;12.82;;
50393;SDS011;36308;46.312;25.288;2023-02-15T11:21:01;24.40;;;14.32;;
50393;SDS011;36308;46.312;25.288;2023-02-15T11:23:30;20.88;;;12.52;;
50393;SDS011;36308;46.312;25.288;2023-02-15T11:25:59;17.38;;;10.90;;
50393;SDS011;36308;46.312;25.288;2023-02-15T11:28:33;21.83;;;12.63;;
50393;SDS011;36308;46.312;25.288;2023-02-15T11:31:11;26.80;;;15.50;;
50393;SDS011;36308;46.312;25.288;2023-02-15T11:34:02;21.08;;;12.40;;
50393;SDS011;36308;46.312;25.288;2023-02-15T11:36:37;17.30;;;10.57;;
50393;SDS011;36308;46.312;25.288;2023-02-15T11:39:10;15.88;;;9.38;;
50393;SDS011;36308;46.312;25.288;2023-02-15T11:41:40;20.05;;;10.65;;
50393;SDS011;36308;46.312;25.288;2023-02-15T11:46:41;19.30;;;12.15;;
50393;SDS011;36308;46.312;25.288;2023-02-15T11:49:27;22.60;;;11.90;;
50393;SDS011;36308;46.312;25.288;2023-02-15T11:51:56;16.92;;;11.38;;
50393;SDS011;36308;46.312;25.288;2023-02-15T11:54:29;15.60;;;9.48;;
50393;SDS011;36308;46.312;25.288;2023-02-15T11:57:10;15.27;;;9.38;;
50393;SDS011;36308;46.312;25.288;2023-02-15T11:59:36;18.23;;;10.27;;
50393;SDS011;36308;46.312;25.288;2023-02-15T12:02:23;17.77;;;10.65;;
50393;SDS011;36308;46.312;25.288;2023-02-15T12:04:54;15.65;;;9.43;;
50393;SDS011;36308;46.312;25.288;2023-02-15T12:07:42;15.85;;;9.52;;
50393;SDS011;36308;46.312;25.288;2023-02-15T12:10:19;21.92;;;13.20;;
50393;SDS011;36308;46.312;25.288;2023-02-15T12:13:12;15.65;;;8.95;;
50393;SDS011;36308;46.312;25.288;2023-02-15T12:15:36;26.67;;;16.30;;
50393;SDS011;36308;46.312;25.288;2023-02-15T12:18:04;22.13;;;13.45;;
50393;SDS011;36308;46.312;25.288;2023-02-15T12:20:32;39.25;;;22.45;;
50393;SDS011;36308;46.312;25.288;2023-02-15T12:23:01;22.88;;;13.77;;
50393;SDS011;36308;46.312;25.288;2023-02-15T12:25:40;18.27;;;10.38;;
50393;SDS011;36308;46.312;25.288;2023-02-15T12:28:26;16.83;;;9.45;;
50393;SDS011;36308;46.312;25.288;2023-02-15T12:30:57;16.70;;;8.65;;
50393;SDS011;36308;46.312;25.288;2023-02-15T12:41:31;15.07;;;9.15;;
50393;SDS011;36308;46.312;25.288;2023-02-15T12:46:51;15.32;;;9.70;;
50393;SDS011;36308;46.312;25.288;2023-02-15T12:49:23;15.98;;;9.57;;
50393;SDS011;36308;46.312;25.288;2023-02-15T12:51:53;19.67;;;11.63;;
50393;SDS011;36308;46.312;25.288;2023-02-15T12:56:55;34.17;;;17.40;;
50393;SDS011;36308;46.312;25.288;2023-02-15T12:59:22;27.30;;;12.38;;
50393;SDS011;36308;46.312;25.288;2023-02-15T13:01:48;44.30;;;19.30;;
50393;SDS011;36308;46.312;25.288;2023-02-15T13:06:48;24.83;;;13.60;;
50393;SDS011;36308;46.312;25.288;2023-02-15T13:09:33;67.50;;;26.02;;
50393;SDS011;36308;46.312;25.288;2023-02-15T13:12:22;46.97;;;24.63;;
50393;SDS011;36308;46.312;25.288;2023-02-15T13:14:51;76.45;;;44.75;;
50393;SDS011;36308;46.312;25.288;2023-02-15T13:17:30;22.58;;;13.05;;
50393;SDS011;36308;46.312;25.288;2023-02-15T13:20:06;34.78;;;17.05;;
50393;SDS011;36308;46.312;25.288;2023-02-15T13:22:42;27.50;;;16.02;;
50393;SDS011;36308;46.312;25.288;2023-02-15T13:25:20;47.47;;;24.08;;
50393;SDS011;36308;46.312;25.288;2023-02-15T13:27:50;41.60;;;22.25;;
50393;SDS011;36308;46.312;25.288;2023-02-15T13:30:28;37.88;;;20.75;;
50393;SDS011;36308;46.312;25.288;2023-02-15T13:33:03;34.72;;;19.13;;
50393;SDS011;36308;46.312;25.288;2023-02-15T13:35:52;27.42;;;16.17;;
50393;SDS011;36308;46.312;25.288;2023-02-15T13:41:09;16.70;;;9.70;;
50393;SDS011;36308;46.312;25.288;2023-02-15T14:08:45;36.35;;;19.13;;
50393;SDS011;36308;46.312;25.288;2023-02-15T14:19:26;32.50;;;17.10;;
50393;SDS011;36308;46.312;25.288;2023-02-15T14:22:18;29.20;;;15.65;;
50393;SDS011;36308;46.312;25.288;2023-02-15T14:30:42;36.33;;;18.85;;
50393;SDS011;36308;46.312;25.288;2023-02-15T14:35:39;34.95;;;18.00;;
50393;SDS011;36308;46.312;25.288;2023-02-15T14:47:12;39.17;;;22.45;;
50393;SDS011;36308;46.312;25.288;2023-02-15T14:49:58;32.25;;;17.40;;
50393;SDS011;36308;46.312;25.288;2023-02-15T14:52:23;54.35;;;25.42;;
50393;SDS011;36308;46.312;25.288;2023-02-15T14:59:50;115.47;;;51.35;;
50393;SDS011;36308;46.312;25.288;2023-02-15T15:07:41;101.85;;;49.90;;
50393;SDS011;36308;46.312;25.288;2023-02-15T15:12:42;86.90;;;39.20;;
50393;SDS011;36308;46.312;25.288;2023-02-15T15:15:11;113.47;;;48.85;;
50393;SDS011;36308;46.312;25.288;2023-02-15T15:25:51;79.38;;;34.30;;
50393;SDS011;36308;46.312;25.288;2023-02-15T15:37:02;69.47;;;30.05;;
50393;SDS011;36308;46.312;25.288;2023-02-15T15:48:43;92.25;;;45.83;;
50393;SDS011;36308;46.312;25.288;2023-02-15T15:50:59;57.10;;;31.63;;
50393;SDS011;36308;46.312;25.288;2023-02-15T15:53:29;44.25;;;27.85;;
50393;SDS011;36308;46.312;25.288;2023-02-15T15:56:05;31.05;;;19.65;;
50393;SDS011;36308;46.312;25.288;2023-02-15T15:58:35;27.60;;;16.98;;
50393;SDS011;36308;46.312;25.288;2023-02-15T16:01:07;35.58;;;21.33;;
50393;SDS011;36308;46.312;25.288;2023-02-15T16:03:47;50.88;;;25.63;;
50393;SDS011;36308;46.312;25.288;2023-02-15T16:06:25;28.85;;;15.60;;
50393;SDS011;36308;46.312;25.288;2023-02-15T16:08:53;28.77;;;16.45;;
50393;SDS011;36308;46.312;25.288;2023-02-15T16:11:21;29.30;;;16.33;;
50393;SDS011;36308;46.312;25.288;2023-02-15T16:13:49;29.30;;;17.85;;
50393;SDS011;36308;46.312;25.288;2023-02-15T16:16:26;30.63;;;16.67;;
50393;SDS011;36308;46.312;25.288;2023-02-15T16:18:55;26.70;;;15.98;;
50393;SDS011;36308;46.312;25.288;2023-02-15T16:21:28;28.17;;;17.08;;
50393;SDS011;36308;46.312;25.288;2023-02-15T16:28:59;26.50;;;16.00;;
50393;SDS011;36308;46.312;25.288;2023-02-15T16:31:26;34.17;;;21.35;;
50393;SDS011;36308;46.312;25.288;2023-02-15T16:33:54;33.78;;;20.05;;
50393;SDS011;36308;46.312;25.288;2023-02-15T16:36:29;30.50;;;19.13;;
50393;SDS011;36308;46.312;25.288;2023-02-15T16:41:21;30.75;;;16.02;;
50393;SDS011;36308;46.312;25.288;2023-02-15T16:43:50;32.10;;;18.50;;
50393;SDS011;36308;46.312;25.288;2023-02-15T16:46:19;62.00;;;31.70;;
50393;SDS011;36308;46.312;25.288;2023-02-15T16:49:20;77.63;;;40.80;;
50393;SDS011;36308;46.312;25.288;2023-02-15T16:51:56;55.70;;;29.35;;
50393;SDS011;36308;46.312;25.288;2023-02-15T16:54:27;59.05;;;32.00;;
50393;SDS011;36308;46.312;25.288;2023-02-15T16:56:54;61.58;;;34.42;;
50393;SDS011;36308;46.312;25.288;2023-02-15T17:02:02;61.88;;;34.80;;
50393;SDS011;36308;46.312;25.288;2023-02-15T17:04:30;117.40;;;56.13;;
50393;SDS011;36308;46.312;25.288;2023-02-15T17:07:16;72.95;;;43.78;;
50393;SDS011;36308;46.312;25.288;2023-02-15T17:09:50;67.70;;;39.30;;
50393;SDS011;36308;46.312;25.288;2023-02-15T17:15:32;51.53;;;30.55;;
50393;SDS011;36308;46.312;25.288;2023-02-15T17:20:29;47.17;;;29.25;;
50393;SDS011;36308;46.312;25.288;2023-02-15T17:22:56;52.50;;;30.88;;
50393;SDS011;36308;46.312;25.288;2023-02-15T17:25:32;49.25;;;28.65;;
50393;SDS011;36308;46.312;25.288;2023-02-15T17:28:04;60.08;;;34.67;;
50393;SDS011;36308;46.312;25.288;2023-02-15T17:30:40;67.70;;;35.65;;
50393;SDS011;36308;46.312;25.288;2023-02-15T17:33:18;75.82;;;37.40;;
50393;SDS011;36308;46.312;25.288;2023-02-15T17:35:44;79.13;;;41.47;;
50393;SDS011;36308;46.312;25.288;2023-02-15T17:38:34;66.15;;;34.25;;
50393;SDS011;36308;46.312;25.288;2023-02-15T17:41:00;56.65;;;29.35;;
50393;SDS011;36308;46.312;25.288;2023-02-15T17:43:26;45.58;;;20.88;;
50393;SDS011;36308;46.312;25.288;2023-02-15T17:45:51;46.28;;;23.10;;
50393;SDS011;36308;46.312;25.288;2023-02-15T17:50:43;59.75;;;30.65;;
50393;SDS011;36308;46.312;25.288;2023-02-15T17:53:09;59.75;;;33.00;;
50393;SDS011;36308;46.312;25.288;2023-02-15T17:55:35;92.25;;;54.35;;
50393;SDS011;36308;46.312;25.288;2023-02-15T17:58:07;83.18;;;47.03;;
50393;SDS011;36308;46.312;25.288;2023-02-15T18:00:42;78.60;;;45.08;;
50393;SDS011;36308;46.312;25.288;2023-02-15T18:04:09;81.55;;;50.72;;
50393;SDS011;36308;46.312;25.288;2023-02-15T18:06:35;95.47;;;51.67;;
50393;SDS011;36308;46.312;25.288;2023-02-15T18:09:22;81.18;;;42.78;;
50393;SDS011;36308;46.312;25.288;2023-02-15T18:14:51;64.55;;;35.63;;
50393;SDS011;36308;46.312;25.288;2023-02-15T18:17:18;93.68;;;51.67;;